Time,TemperatureF,DewpointF,PressureIn,WindDirection,WindDirectionDegrees,WindSpeedMPH,WindSpeedGustMPH,Humidity,HourlyPrecipIn,Conditions,Clouds,dailyrainin,SoftwareType,DateUTC
2013-01-05 00:00:00,30.4,18.6,30.10,WNW,298,2.0,5.0,61,0.00,,---,0.00,VWS V14.01,2013-01-05 05:00:00,
2013-01-05 00:01:00,30.4,18.6,30.10,West,275,0.0,0.0,61,0.00,,---,0.00,VWS V14.01,2013-01-05 05:01:00,
2013-01-05 00:06:00,30.4,18.6,30.10,West,274,0.0,1.0,61,0.00,,---,0.00,VWS V14.01,2013-01-05 05:06:00,
2013-01-05 00:11:00,30.4,18.6,30.10,WNW,284,0.0,4.0,61,0.00,,---,0.00,VWS V14.01,2013-01-05 05:11:00,
2013-01-05 00:16:00,30.6,18.4,30.10,WNW,284,4.0,6.0,60,0.00,,---,0.00,VWS V14.01,2013-01-05 05:16:00,
2013-01-05 00:21:00,30.6,18.4,30.10,West,262,2.0,5.0,60,0.00,,---,0.00,VWS V14.01,2013-01-05 05:21:00,
2013-01-05 00:26:00,30.7,18.5,30.10,West,281,3.0,5.0,60,0.00,,---,0.00,VWS V14.01,2013-01-05 05:26:00,
2013-01-05 00:31:00,30.6,18.4,30.09,West,272,3.0,4.0,60,0.00,,---,0.00,VWS V14.01,2013-01-05 05:31:00,
2013-01-05 00:36:00,30.7,18.5,30.09,West,281,7.0,13.0,60,0.00,,---,0.00,VWS V14.01,2013-01-05 05:36:00,
2013-01-05 00:41:00,30.9,18.3,30.09,WNW,296,12.0,12.0,59,0.00,,---,0.00,VWS V14.01,2013-01-05 05:41:00,
2013-01-05 00:46:00,30.9,18.3,30.09,NW,304,5.0,7.0,59,0.00,,---,0.00,VWS V14.01,2013-01-05 05:46:00,
2013-01-05 00:51:00,30.9,18.3,30.09,NW,308,4.0,5.0,59,0.00,,---,0.00,VWS V14.01,2013-01-05 05:51:00,
2013-01-05 00:56:00,31.0,18.0,30.09,West,277,5.0,13.0,58,0.00,,---,0.00,VWS V14.01,2013-01-05 05:56:00,
2013-01-05 01:01:00,30.9,17.9,30.09,West,277,13.0,17.0,58,0.00,,---,0.00,VWS V14.01,2013-01-05 06:01:00,
2013-01-05 01:06:00,31.0,18.0,30.09,West,265,8.0,13.0,58,0.00,,---,0.00,VWS V14.01,2013-01-05 06:06:00,
2013-01-05 01:11:00,30.9,18.3,30.09,West,271,13.0,15.0,59,0.00,,---,0.00,VWS V14.01,2013-01-05 06:11:00,
2013-01-05 01:16:00,30.9,17.9,30.10,West,278,0.0,4.0,58,0.00,,---,0.00,VWS V14.01,2013-01-05 06:16:00,
2013-01-05 01:21:00,30.7,18.1,30.10,WNW,294,1.0,5.0,59,0.00,,---,0.00,VWS V14.01,2013-01-05 06:21:00,
2013-01-05 01:26:00,30.7,18.1,30.10,NW,316,4.0,6.0,59,0.00,,---,0.00,VWS V14.01,2013-01-05 06:26:00,
2013-01-05 01:31:00,30.9,18.3,30.10,West,279,4.0,10.0,59,0.00,,---,0.00,VWS V14.01,2013-01-05 06:31:00,
2013-01-05 01:36:00,30.7,18.1,30.10,West,281,0.0,3.0,59,0.00,,---,0.00,VWS V14.01,2013-01-05 06:36:00,
2013-01-05 01:41:00,30.6,18.0,30.10,West,274,6.0,14.0,59,0.00,,---,0.00,VWS V14.01,2013-01-05 06:41:00,
2013-01-05 01:46:00,30.7,18.1,30.10,WNW,303,5.0,9.0,59,0.00,,---,0.00,VWS V14.01,2013-01-05 06:46:00,
2013-01-05 01:51:00,30.6,18.0,30.10,NW,306,3.0,6.0,59,0.00,,---,0.00,VWS V14.01,2013-01-05 06:51:00,
2013-01-05 01:56:00,30.7,18.1,30.10,WNW,299,3.0,13.0,59,0.00,,---,0.00,VWS V14.01,2013-01-05 06:56:00,
2013-01-05 02:01:00,30.6,18.4,30.11,WNW,300,7.0,15.0,60,0.00,,---,0.00,VWS V14.01,2013-01-05 07:01:00,
2013-01-05 02:06:00,30.6,18.4,30.11,North,11,6.0,13.0,60,0.00,,---,0.00,VWS V14.01,2013-01-05 07:06:00,
2013-01-05 02:11:00,30.6,18.4,30.11,WNW,284,8.0,9.0,60,0.00,,---,0.00,VWS V14.01,2013-01-05 07:11:00,
2013-01-05 02:16:00,30.6,18.4,30.12,West,266,4.0,6.0,60,0.00,,---,0.00,VWS V14.01,2013-01-05 07:16:00,
2013-01-05 02:21:00,30.4,18.2,30.12,NW,311,9.0,11.0,60,0.00,,---,0.00,VWS V14.01,2013-01-05 07:21:00,
2013-01-05 02:26:00,30.4,18.2,30.12,WNW,301,6.0,10.0,60,0.00,,---,0.00,VWS V14.01,2013-01-05 07:26:00,
2013-01-05 02:31:00,30.4,18.6,30.13,WNW,292,7.0,10.0,61,0.00,,---,0.00,VWS V14.01,2013-01-05 07:31:00,
2013-01-05 02:36:00,30.4,18.6,30.13,WSW,254,16.0,18.0,61,0.00,,---,0.00,VWS V14.01,2013-01-05 07:36:00,
2013-01-05 02:41:00,30.4,18.6,30.13,WNW,288,5.0,13.0,61,0.00,,---,0.00,VWS V14.01,2013-01-05 07:41:00,
2013-01-05 02:46:00,30.4,18.6,30.13,WNW,292,11.0,14.0,61,0.00,,---,0.00,VWS V14.01,2013-01-05 07:46:00,
2013-01-05 02:51:00,30.4,18.6,30.13,West,264,10.0,16.0,61,0.00,,---,0.00,VWS V14.01,2013-01-05 07:51:00,
2013-01-05 02:56:00,30.3,18.5,30.13,NW,309,9.0,18.0,61,0.00,,---,0.00,VWS V14.01,2013-01-05 07:56:00,
2013-01-05 03:01:00,30.1,18.7,30.13,WNW,296,16.0,16.0,62,0.00,,---,0.00,VWS V14.01,2013-01-05 08:01:00,
2013-01-05 03:06:00,30.1,18.7,30.13,WNW,300,14.0,23.0,62,0.00,,---,0.00,VWS V14.01,2013-01-05 08:06:00,
2013-01-05 03:11:00,30.1,18.7,30.13,WNW,297,13.0,19.0,62,0.00,,---,0.00,VWS V14.01,2013-01-05 08:11:00,
2013-01-05 03:16:00,30.0,18.6,30.14,WNW,302,9.0,11.0,62,0.00,,---,0.00,VWS V14.01,2013-01-05 08:16:00,
2013-01-05 03:21:00,30.0,18.6,30.14,NW,309,8.0,13.0,62,0.00,,---,0.00,VWS V14.01,2013-01-05 08:21:00,
2013-01-05 03:26:00,29.8,18.4,30.14,WNW,299,6.0,15.0,62,0.00,,---,0.00,VWS V14.01,2013-01-05 08:26:00,
2013-01-05 03:31:00,29.8,18.8,30.15,WNW,296,5.0,18.0,63,0.00,,---,0.00,VWS V14.01,2013-01-05 08:31:00,
2013-01-05 03:36:00,29.7,18.7,30.15,West,265,11.0,16.0,63,0.00,,---,0.00,VWS V14.01,2013-01-05 08:36:00,
2013-01-05 03:41:00,29.7,18.7,30.15,NW,311,6.0,11.0,63,0.00,,---,0.00,VWS V14.01,2013-01-05 08:41:00,
2013-01-05 03:46:00,29.5,18.5,30.16,NW,313,7.0,9.0,63,0.00,,---,0.00,VWS V14.01,2013-01-05 08:46:00,
2013-01-05 03:51:00,29.5,18.8,30.16,WNW,299,6.0,12.0,64,0.00,,---,0.00,VWS V14.01,2013-01-05 08:51:00,
2013-01-05 03:56:00,29.5,18.8,30.16,WNW,292,9.0,15.0,64,0.00,,---,0.00,VWS V14.01,2013-01-05 08:56:00,
2013-01-05 04:01:00,29.5,18.8,30.17,WNW,294,5.0,19.0,64,0.00,,---,0.00,VWS V14.01,2013-01-05 09:01:00,
2013-01-05 04:06:00,29.4,18.7,30.17,WNW,296,6.0,17.0,64,0.00,,---,0.00,VWS V14.01,2013-01-05 09:06:00,
2013-01-05 04:11:00,29.4,18.7,30.17,WNW,302,6.0,7.0,64,0.00,,---,0.00,VWS V14.01,2013-01-05 09:11:00,
2013-01-05 04:16:00,29.4,18.7,30.18,West,273,6.0,10.0,64,0.00,,---,0.00,VWS V14.01,2013-01-05 09:16:00,
2013-01-05 04:21:00,29.4,18.7,30.18,NW,309,5.0,17.0,64,0.00,,---,0.00,VWS V14.01,2013-01-05 09:21:00,
2013-01-05 04:26:00,29.3,18.6,30.18,NW,320,9.0,10.0,64,0.00,,---,0.00,VWS V14.01,2013-01-05 09:26:00,
2013-01-05 04:31:00,29.3,18.6,30.17,WNW,302,6.0,11.0,64,0.00,,---,0.00,VWS V14.01,2013-01-05 09:31:00,
2013-01-05 04:36:00,29.1,18.5,30.17,NW,323,16.0,21.0,64,0.00,,---,0.00,VWS V14.01,2013-01-05 09:36:00,
2013-01-05 04:41:00,29.3,18.6,30.17,NW,316,14.0,18.0,64,0.00,,---,0.00,VWS V14.01,2013-01-05 09:41:00,
2013-01-05 04:46:00,29.1,18.5,30.17,NW,321,7.0,13.0,64,0.00,,---,0.00,VWS V14.01,2013-01-05 09:46:00,
2013-01-05 04:51:00,29.1,18.5,30.17,WNW,300,14.0,16.0,64,0.00,,---,0.00,VWS V14.01,2013-01-05 09:51:00,
2013-01-05 04:56:00,29.1,18.8,30.17,NW,321,7.0,17.0,65,0.00,,---,0.00,VWS V14.01,2013-01-05 09:56:00,
2013-01-05 05:01:00,29.1,18.8,30.17,WNW,301,15.0,16.0,65,0.00,,---,0.00,VWS V14.01,2013-01-05 10:01:00,
2013-01-05 05:06:00,29.1,18.8,30.17,WNW,303,9.0,14.0,65,0.00,,---,0.00,VWS V14.01,2013-01-05 10:06:00,
2013-01-05 05:11:00,29.1,18.8,30.17,NW,305,5.0,12.0,65,0.00,,---,0.00,VWS V14.01,2013-01-05 10:11:00,
2013-01-05 05:16:00,29.0,18.7,30.18,West,280,21.0,21.0,65,0.00,,---,0.00,VWS V14.01,2013-01-05 10:16:00,
2013-01-05 05:21:00,29.0,18.7,30.18,WNW,294,7.0,10.0,65,0.00,,---,0.00,VWS V14.01,2013-01-05 10:21:00,
2013-01-05 05:26:00,28.8,18.5,30.18,WNW,298,10.0,16.0,65,0.00,,---,0.00,VWS V14.01,2013-01-05 10:26:00,
2013-01-05 05:31:00,28.8,18.9,30.20,WNW,301,7.0,10.0,66,0.00,,---,0.00,VWS V14.01,2013-01-05 10:31:00,
2013-01-05 05:36:00,28.8,18.9,30.20,WNW,287,11.0,18.0,66,0.00,,---,0.00,VWS V14.01,2013-01-05 10:36:00,
2013-01-05 05:41:00,28.8,18.5,30.20,NW,304,12.0,16.0,65,0.00,,---,0.00,VWS V14.01,2013-01-05 10:41:00,
2013-01-05 05:46:00,28.8,18.9,30.20,NW,320,9.0,18.0,66,0.00,,---,0.00,VWS V14.01,2013-01-05 10:46:00,
2013-01-05 05:51:00,28.8,18.9,30.20,WNW,295,11.0,13.0,66,0.00,,---,0.00,VWS V14.01,2013-01-05 10:51:00,
2013-01-05 05:56:00,28.7,18.8,30.20,NW,306,5.0,13.0,66,0.00,,---,0.00,VWS V14.01,2013-01-05 10:56:00,
2013-01-05 06:01:00,28.7,18.8,30.21,West,278,7.0,10.0,66,0.00,,---,0.00,VWS V14.01,2013-01-05 11:01:00,
2013-01-05 06:06:00,28.5,18.6,30.21,NW,306,9.0,10.0,66,0.00,,---,0.00,VWS V14.01,2013-01-05 11:06:00,
2013-01-05 06:11:00,28.5,18.6,30.21,WNW,289,6.0,13.0,66,0.00,,---,0.00,VWS V14.01,2013-01-05 11:11:00,
2013-01-05 06:16:00,28.5,18.6,30.22,NW,311,7.0,12.0,66,0.00,,---,0.00,VWS V14.01,2013-01-05 11:16:00,
2013-01-05 06:21:00,28.4,18.9,30.22,NW,321,9.0,12.0,67,0.00,,---,0.00,VWS V14.01,2013-01-05 11:21:00,
2013-01-05 06:26:00,28.4,18.9,30.22,NW,321,6.0,10.0,67,0.00,,---,0.00,VWS V14.01,2013-01-05 11:26:00,
2013-01-05 06:31:00,28.4,18.9,30.24,WNW,300,4.0,6.0,67,0.00,,---,0.00,VWS V14.01,2013-01-05 11:31:00,
2013-01-05 06:36:00,28.2,18.7,30.24,NW,317,9.0,9.0,67,0.00,,---,0.00,VWS V14.01,2013-01-05 11:36:00,
2013-01-05 06:41:00,28.1,18.6,30.24,WNW,300,3.0,4.0,67,0.00,,---,0.00,VWS V14.01,2013-01-05 11:41:00,
2013-01-05 06:46:00,28.1,18.6,30.25,WNW,300,8.0,8.0,67,0.00,,---,0.00,VWS V14.01,2013-01-05 11:46:00,
2013-01-05 06:51:00,27.9,18.4,30.25,NW,313,4.0,4.0,67,0.00,,---,0.00,VWS V14.01,2013-01-05 11:51:00,
2013-01-05 06:56:00,27.9,18.4,30.25,NW,306,3.0,7.0,67,0.00,,---,0.00,VWS V14.01,2013-01-05 11:56:00,
2013-01-05 07:01:00,27.9,18.4,30.25,West,280,4.0,7.0,67,0.00,,---,0.00,VWS V14.01,2013-01-05 12:01:00,
2013-01-05 07:06:00,27.9,18.4,30.25,West,267,6.0,10.0,67,0.00,,---,0.00,VWS V14.01,2013-01-05 12:06:00,
2013-01-05 07:11:00,27.9,18.4,30.25,WNW,290,4.0,7.0,67,0.00,,---,0.00,VWS V14.01,2013-01-05 12:11:00,
2013-01-05 07:16:00,27.9,18.4,30.26,WNW,286,3.0,3.0,67,0.00,,---,0.00,VWS V14.01,2013-01-05 12:16:00,
2013-01-05 07:21:00,27.9,18.4,30.26,WSW,256,1.0,10.0,67,0.00,,---,0.00,VWS V14.01,2013-01-05 12:21:00,
2013-01-05 07:25:00,27.8,18.3,30.26,West,281,3.0,9.0,67,0.00,,---,0.00,VWS V14.01,2013-01-05 12:25:00,
2013-01-05 07:30:00,27.8,18.3,30.27,WNW,286,0.0,0.0,67,0.00,,---,0.00,VWS V14.01,2013-01-05 12:30:00,
2013-01-05 07:35:00,27.8,18.6,30.27,North,360,5.0,5.0,68,0.00,,---,0.00,VWS V14.01,2013-01-05 12:35:00,
2013-01-05 07:40:00,27.8,18.6,30.27,NNW,344,6.0,7.0,68,0.00,,---,0.00,VWS V14.01,2013-01-05 12:40:00,
2013-01-05 07:45:00,27.8,18.6,30.25,North,360,7.0,9.0,68,0.00,,---,0.00,VWS V14.01,2013-01-05 12:45:00,
2013-01-05 07:50:00,27.9,18.7,30.25,NNW,327,2.0,3.0,68,0.00,,---,0.00,VWS V14.01,2013-01-05 12:50:00,
2013-01-05 07:55:00,27.9,18.7,30.25,WNW,298,3.0,5.0,68,0.00,,---,0.00,VWS V14.01,2013-01-05 12:55:00,
2013-01-05 08:00:00,27.9,18.7,30.25,NW,312,2.0,3.0,68,0.00,,---,0.00,VWS V14.01,2013-01-05 13:00:00,
2013-01-05 08:05:00,27.9,18.7,30.25,NNW,330,3.0,4.0,68,0.00,,---,0.00,VWS V14.01,2013-01-05 13:05:00,
2013-01-05 08:10:00,27.9,18.7,30.25,North,360,3.0,3.0,68,0.00,,---,0.00,VWS V14.01,2013-01-05 13:10:00,
2013-01-05 08:15:00,27.9,18.7,30.25,North,5,0.0,0.0,68,0.00,,---,0.00,VWS V14.01,2013-01-05 13:15:00,
2013-01-05 08:20:00,27.9,18.7,30.25,NNW,345,3.0,3.0,68,0.00,,---,0.00,VWS V14.01,2013-01-05 13:20:00,
2013-01-05 08:25:00,27.9,18.7,30.25,North,5,0.0,4.0,68,0.00,,---,0.00,VWS V14.01,2013-01-05 13:25:00,
2013-01-05 08:30:00,27.9,18.7,30.25,NW,318,4.0,4.0,68,0.00,,---,0.00,VWS V14.01,2013-01-05 13:30:00,
2013-01-05 08:35:00,27.9,18.7,30.25,NW,325,5.0,6.0,68,0.00,,---,0.00,VWS V14.01,2013-01-05 13:35:00,
2013-01-05 08:40:00,28.1,18.9,30.25,NW,313,2.0,4.0,68,0.00,,---,0.00,VWS V14.01,2013-01-05 13:40:00,
2013-01-05 08:45:00,28.5,19.3,30.27,NW,313,0.0,3.0,68,0.00,,---,0.00,VWS V14.01,2013-01-05 13:45:00,
2013-01-05 08:50:00,28.8,19.2,30.27,NNW,342,2.0,5.0,67,0.00,,---,0.00,VWS V14.01,2013-01-05 13:50:00,
2013-01-05 08:55:00,29.1,19.2,30.27,North,11,7.0,7.0,66,0.00,,---,0.00,VWS V14.01,2013-01-05 13:55:00,
2013-01-05 09:00:00,29.3,19.4,30.29,NW,308,0.0,0.0,66,0.00,,---,0.00,VWS V14.01,2013-01-05 14:00:00,
2013-01-05 09:05:00,29.4,19.1,30.29,NNE,15,1.0,4.0,65,0.00,,---,0.00,VWS V14.01,2013-01-05 14:05:00,
2013-01-05 09:10:00,29.5,19.6,30.29,NW,311,0.0,0.0,66,0.00,,---,0.00,VWS V14.01,2013-01-05 14:10:00,
2013-01-05 09:15:00,29.3,19.4,30.30,WNW,292,0.0,0.0,66,0.00,,---,0.00,VWS V14.01,2013-01-05 14:15:00,
2013-01-05 09:20:00,29.3,19.4,30.30,WNW,301,1.0,3.0,66,0.00,,---,0.00,VWS V14.01,2013-01-05 14:20:00,
2013-01-05 09:27:00,29.3,19.4,30.30,West,272,7.0,7.0,66,0.00,,---,0.00,VWS V14.01,2013-01-05 14:27:00,
2013-01-05 09:32:00,29.3,19.4,30.31,West,271,2.0,3.0,66,0.00,,---,0.00,VWS V14.01,2013-01-05 14:32:00,
2013-01-05 09:37:00,29.5,19.6,30.31,WNW,294,5.0,5.0,66,0.00,,---,0.00,VWS V14.01,2013-01-05 14:37:00,
2013-01-05 09:42:00,29.7,19.8,30.31,NW,313,5.0,7.0,66,0.00,,---,0.00,VWS V14.01,2013-01-05 14:42:00,
2013-01-05 09:47:00,29.8,19.8,30.28,NW,323,5.0,10.0,66,0.00,,---,0.00,VWS V14.01,2013-01-05 14:47:00,
2013-01-05 09:52:00,30.1,20.1,30.28,WNW,296,5.0,9.0,66,0.00,,---,0.00,VWS V14.01,2013-01-05 14:52:00,
2013-01-05 09:57:00,30.3,20.0,30.28,NW,313,0.0,6.0,65,0.00,,---,0.00,VWS V14.01,2013-01-05 14:57:00,
2013-01-05 10:02:00,30.7,20.0,30.27,North,5,2.0,4.0,64,0.00,,---,0.00,VWS V14.01,2013-01-05 15:02:00,
2013-01-05 10:07:00,30.9,19.8,30.27,East,88,0.0,1.0,63,0.00,,---,0.00,VWS V14.01,2013-01-05 15:07:00,
2013-01-05 10:12:00,30.7,20.0,30.27,NE,40,0.0,0.0,64,0.00,,---,0.00,VWS V14.01,2013-01-05 15:12:00,
2013-01-05 10:17:00,31.2,20.1,30.28,NW,309,0.0,0.0,63,0.00,,---,0.00,VWS V14.01,2013-01-05 15:17:00,
2013-01-05 10:22:00,31.5,20.0,30.28,North,355,3.0,7.0,62,0.00,,---,0.00,VWS V14.01,2013-01-05 15:22:00,
2013-01-05 10:35:00,31.8,19.9,30.28,North,0,2.0,6.0,61,0.00,,---,0.00,VWS V14.01,2013-01-05 15:35:00,
2013-01-05 10:40:00,31.8,20.3,30.28,West,273,0.0,4.0,62,0.00,,---,0.00,VWS V14.01,2013-01-05 15:40:00,
2013-01-05 10:45:00,32.1,19.8,30.31,West,261,0.0,0.0,60,0.00,,---,0.00,VWS V14.01,2013-01-05 15:45:00,
2013-01-05 10:50:00,32.5,20.2,30.31,North,355,0.0,0.0,60,0.00,,---,0.00,VWS V14.01,2013-01-05 15:50:00,
2013-01-05 10:55:00,32.8,20.1,30.31,North,360,0.0,0.0,59,0.00,,---,0.00,VWS V14.01,2013-01-05 15:55:00,
2013-01-05 11:00:00,32.8,20.1,30.31,North,11,3.0,7.0,59,0.00,,---,0.00,VWS V14.01,2013-01-05 16:00:00,
2013-01-05 11:05:00,32.7,20.0,30.31,WSW,256,0.0,0.0,59,0.00,,---,0.00,VWS V14.01,2013-01-05 16:05:00,
2013-01-05 11:10:00,32.8,20.1,30.31,NW,311,3.0,3.0,59,0.00,,---,0.00,VWS V14.01,2013-01-05 16:10:00,
2013-01-05 11:15:00,33.1,20.4,30.30,NW,313,2.0,7.0,59,0.00,,---,0.00,VWS V14.01,2013-01-05 16:15:00,
2013-01-05 11:20:00,33.4,20.2,30.30,NNW,346,4.0,4.0,58,0.00,,---,0.00,VWS V14.01,2013-01-05 16:20:00,
2013-01-05 11:25:00,33.1,20.4,30.30,WNW,286,0.0,4.0,59,0.00,,---,0.00,VWS V14.01,2013-01-05 16:25:00,
2013-01-05 11:30:00,32.7,20.4,30.30,West,276,1.0,11.0,60,0.00,,---,0.00,VWS V14.01,2013-01-05 16:30:00,
2013-01-05 11:35:00,32.7,20.4,30.30,West,278,0.0,4.0,60,0.00,,---,0.00,VWS V14.01,2013-01-05 16:35:00,
2013-01-05 11:40:00,33.2,20.4,30.30,West,275,0.0,0.0,59,0.00,,---,0.00,VWS V14.01,2013-01-05 16:40:00,
2013-01-05 11:45:00,33.2,20.8,30.29,West,275,3.0,3.0,60,0.00,,---,0.00,VWS V14.01,2013-01-05 16:45:00,
2013-01-05 11:50:00,33.4,20.6,30.29,WNW,282,0.0,3.0,59,0.00,,---,0.00,VWS V14.01,2013-01-05 16:50:00,
2013-01-05 11:55:00,33.4,20.2,30.29,West,281,0.0,0.0,58,0.00,,---,0.00,VWS V14.01,2013-01-05 16:55:00,
2013-01-05 12:00:00,33.2,20.8,30.30,West,265,4.0,6.0,60,0.00,,---,0.00,VWS V14.01,2013-01-05 17:00:00,
2013-01-05 12:05:00,33.2,20.4,30.30,West,263,3.0,10.0,59,0.00,,---,0.00,VWS V14.01,2013-01-05 17:05:00,
2013-01-05 12:10:00,33.4,20.2,30.30,WSW,256,3.0,7.0,58,0.00,,---,0.00,VWS V14.01,2013-01-05 17:10:00,
2013-01-05 12:15:00,33.8,21.0,30.29,West,271,3.0,5.0,59,0.00,,---,0.00,VWS V14.01,2013-01-05 17:15:00,
2013-01-05 12:20:00,33.7,20.5,30.29,West,280,0.0,5.0,58,0.00,,---,0.00,VWS V14.01,2013-01-05 17:20:00,
2013-01-05 12:25:00,33.5,21.1,30.29,West,277,0.0,4.0,60,0.00,,---,0.00,VWS V14.01,2013-01-05 17:25:00,
2013-01-05 12:30:00,33.7,20.9,30.28,WNW,286,0.0,0.0,59,0.00,,---,0.00,VWS V14.01,2013-01-05 17:30:00,
2013-01-05 12:35:00,33.8,20.6,30.28,WNW,288,0.0,6.0,58,0.00,,---,0.00,VWS V14.01,2013-01-05 17:35:00,
2013-01-05 12:40:00,33.8,20.6,30.28,WNW,292,0.0,4.0,58,0.00,,---,0.00,VWS V14.01,2013-01-05 17:40:00,
2013-01-05 12:45:00,33.8,20.6,30.27,NW,309,4.0,5.0,58,0.00,,---,0.00,VWS V14.01,2013-01-05 17:45:00,
2013-01-05 12:50:00,33.8,21.0,30.27,West,269,4.0,5.0,59,0.00,,---,0.00,VWS V14.01,2013-01-05 17:50:00,
2013-01-05 12:55:00,33.8,20.6,30.27,West,269,4.0,5.0,58,0.00,,---,0.00,VWS V14.01,2013-01-05 17:55:00,
2013-01-05 13:00:00,33.8,21.0,30.25,West,271,0.0,4.0,59,0.00,,---,0.00,VWS V14.01,2013-01-05 18:00:00,
2013-01-05 13:05:00,34.1,21.3,30.25,West,281,0.0,3.0,59,0.00,,---,0.00,VWS V14.01,2013-01-05 18:05:00,
2013-01-05 13:10:00,34.4,20.8,30.25,West,271,0.0,5.0,57,0.00,,---,0.00,VWS V14.01,2013-01-05 18:10:00,
2013-01-05 13:15:00,34.9,21.2,30.25,North,355,0.0,1.0,57,0.00,,---,0.00,VWS V14.01,2013-01-05 18:15:00,
2013-01-05 13:20:00,34.7,20.6,30.25,NW,306,0.0,3.0,56,0.00,,---,0.00,VWS V14.01,2013-01-05 18:20:00,
2013-01-05 13:25:00,34.6,21.0,30.25,WNW,303,0.0,0.0,57,0.00,,---,0.00,VWS V14.01,2013-01-05 18:25:00,
2013-01-05 13:30:00,34.7,20.6,30.25,WNW,302,0.0,1.0,56,0.00,,---,0.00,VWS V14.01,2013-01-05 18:30:00,
2013-01-05 13:35:00,34.7,21.0,30.25,West,279,0.0,5.0,57,0.00,,---,0.00,VWS V14.01,2013-01-05 18:35:00,
2013-01-05 13:40:00,34.7,21.5,30.25,West,279,0.0,1.0,58,0.00,,---,0.00,VWS V14.01,2013-01-05 18:40:00,
2013-01-05 13:45:00,34.9,20.8,30.24,WSW,250,0.0,3.0,56,0.00,,---,0.00,VWS V14.01,2013-01-05 18:45:00,
2013-01-05 13:50:00,35.0,21.3,30.24,West,262,0.0,4.0,57,0.00,,---,0.00,VWS V14.01,2013-01-05 18:50:00,
2013-01-05 13:55:00,34.9,21.2,30.24,West,263,2.0,3.0,57,0.00,,---,0.00,VWS V14.01,2013-01-05 18:55:00,
2013-01-05 14:00:00,34.9,21.2,30.23,West,263,0.0,4.0,57,0.00,,---,0.00,VWS V14.01,2013-01-05 19:00:00,
2013-01-05 14:05:00,35.2,21.1,30.23,West,263,0.0,5.0,56,0.00,,---,0.00,VWS V14.01,2013-01-05 19:05:00,
2013-01-05 14:10:00,35.2,21.1,30.23,West,280,2.0,4.0,56,0.00,,---,0.00,VWS V14.01,2013-01-05 19:10:00,
2013-01-05 14:15:00,35.3,21.2,30.25,West,279,0.0,5.0,56,0.00,,---,0.00,VWS V14.01,2013-01-05 19:15:00,
2013-01-05 14:20:00,35.2,21.1,30.25,West,272,4.0,5.0,56,0.00,,---,0.00,VWS V14.01,2013-01-05 19:20:00,
2013-01-05 14:25:00,35.2,21.1,30.25,West,275,0.0,5.0,56,0.00,,---,0.00,VWS V14.01,2013-01-05 19:25:00,
2013-01-05 14:30:00,35.3,21.2,30.23,West,269,4.0,4.0,56,0.00,,---,0.00,VWS V14.01,2013-01-05 19:30:00,
2013-01-05 14:35:00,35.3,21.2,30.23,NW,306,0.0,6.0,56,0.00,,---,0.00,VWS V14.01,2013-01-05 19:35:00,
2013-01-05 14:40:00,35.5,21.0,30.23,NW,304,2.0,4.0,55,0.00,,---,0.00,VWS V14.01,2013-01-05 19:40:00,
2013-01-05 14:45:00,35.5,21.4,30.23,WNW,296,0.0,4.0,56,0.00,,---,0.00,VWS V14.01,2013-01-05 19:45:00,
2013-01-05 14:50:00,35.8,21.6,30.23,WNW,290,0.0,3.0,56,0.00,,---,0.00,VWS V14.01,2013-01-05 19:50:00,
2013-01-05 14:55:00,35.6,21.0,30.23,West,280,1.0,4.0,55,0.00,,---,0.00,VWS V14.01,2013-01-05 19:55:00,
2013-01-05 15:00:00,35.6,21.0,30.23,West,267,1.0,7.0,55,0.00,,---,0.00,VWS V14.01,2013-01-05 20:00:00,
2013-01-05 15:05:00,35.3,21.2,30.23,West,268,0.0,4.0,56,0.00,,---,0.00,VWS V14.01,2013-01-05 20:05:00,
2013-01-05 15:10:00,35.5,21.4,30.23,West,268,0.0,2.0,56,0.00,,---,0.00,VWS V14.01,2013-01-05 20:10:00,
2013-01-05 15:15:00,35.6,21.0,30.23,West,268,0.0,3.0,55,0.00,,---,0.00,VWS V14.01,2013-01-05 20:15:00,
2013-01-05 15:20:00,35.8,21.2,30.23,West,268,0.0,3.0,55,0.00,,---,0.00,VWS V14.01,2013-01-05 20:20:00,
2013-01-05 15:25:00,35.6,21.5,30.23,West,268,0.0,0.0,56,0.00,,---,0.00,VWS V14.01,2013-01-05 20:25:00,
2013-01-05 15:30:00,35.8,21.6,30.23,West,268,0.0,0.0,56,0.00,,---,0.00,VWS V14.01,2013-01-05 20:30:00,
2013-01-05 15:35:00,35.8,21.2,30.23,West,268,0.0,0.0,55,0.00,,---,0.00,VWS V14.01,2013-01-05 20:35:00,
2013-01-05 15:40:00,35.5,21.4,30.23,West,268,0.0,0.0,56,0.00,,---,0.00,VWS V14.01,2013-01-05 20:40:00,
2013-01-05 15:45:00,35.6,21.0,30.23,West,268,2.0,3.0,55,0.00,,---,0.00,VWS V14.01,2013-01-05 20:45:00,
2013-01-05 15:50:00,35.6,21.0,30.23,West,268,2.0,3.0,55,0.00,,---,0.00,VWS V14.01,2013-01-05 20:50:00,
2013-01-05 15:55:00,35.6,21.5,30.23,West,268,1.0,3.0,56,0.00,,---,0.00,VWS V14.01,2013-01-05 20:55:00,
2013-01-05 16:00:00,35.8,21.2,30.24,West,268,0.0,3.0,55,0.00,,---,0.00,VWS V14.01,2013-01-05 21:00:00,
2013-01-05 16:05:00,35.6,21.5,30.24,West,268,0.0,0.0,56,0.00,,---,0.00,VWS V14.01,2013-01-05 21:05:00,
2013-01-05 16:10:00,35.3,21.2,30.24,West,268,0.0,0.0,56,0.00,,---,0.00,VWS V14.01,2013-01-05 21:10:00,
2013-01-05 16:15:00,35.3,21.2,30.23,West,268,0.0,2.0,56,0.00,,---,0.00,VWS V14.01,2013-01-05 21:15:00,
2013-01-05 16:20:00,35.0,21.3,30.23,West,268,0.0,0.0,57,0.00,,---,0.00,VWS V14.01,2013-01-05 21:20:00,
2013-01-05 16:25:00,34.9,20.8,30.23,West,268,0.0,0.0,56,0.00,,---,0.00,VWS V14.01,2013-01-05 21:25:00,
2013-01-05 16:30:00,34.4,21.2,30.24,West,268,0.0,0.0,58,0.00,,---,0.00,VWS V14.01,2013-01-05 21:30:00,
2013-01-05 16:35:00,34.4,20.8,30.24,West,268,0.0,0.0,57,0.00,,---,0.00,VWS V14.01,2013-01-05 21:35:00,
2013-01-05 16:40:00,34.6,21.4,30.24,West,268,0.0,0.0,58,0.00,,---,0.00,VWS V14.01,2013-01-05 21:40:00,
2013-01-05 16:45:00,34.1,21.3,30.23,West,268,0.0,0.0,59,0.00,,---,0.00,VWS V14.01,2013-01-05 21:45:00,
2013-01-05 16:50:00,34.0,21.2,30.23,West,268,0.0,0.0,59,0.00,,---,0.00,VWS V14.01,2013-01-05 21:50:00,
2013-01-05 16:55:00,33.7,21.3,30.23,West,268,0.0,0.0,60,0.00,,---,0.00,VWS V14.01,2013-01-05 21:55:00,
2013-01-05 17:00:00,33.4,21.0,30.23,West,268,0.0,0.0,60,0.00,,---,0.00,VWS V14.01,2013-01-05 22:00:00,
2013-01-05 17:05:00,32.2,21.4,30.23,SW,232,0.0,2.0,64,0.00,,---,0.00,VWS V14.01,2013-01-05 22:05:00,
2013-01-05 17:10:00,33.1,21.1,30.23,SW,227,0.0,0.0,61,0.00,,---,0.00,VWS V14.01,2013-01-05 22:10:00,
2013-01-05 17:15:00,32.7,21.1,30.22,SW,225,0.0,0.0,62,0.00,,---,0.00,VWS V14.01,2013-01-05 22:15:00,
2013-01-05 17:20:00,30.3,21.4,30.22,South,182,0.0,3.0,69,0.00,,---,0.00,VWS V14.01,2013-01-05 22:20:00,
2013-01-05 17:25:00,30.3,21.4,30.22,South,180,0.0,0.0,69,0.00,,---,0.00,VWS V14.01,2013-01-05 22:25:00,
2013-01-05 17:30:00,30.3,20.0,30.22,South,180,0.0,0.0,65,0.00,,---,0.00,VWS V14.01,2013-01-05 22:30:00,
2013-01-05 17:35:00,29.7,21.1,30.22,South,180,0.0,0.0,70,0.00,,---,0.00,VWS V14.01,2013-01-05 22:35:00,
2013-01-05 17:40:00,29.8,21.2,30.22,South,180,0.0,0.0,70,0.00,,---,0.00,VWS V14.01,2013-01-05 22:40:00,
2013-01-05 17:45:00,29.7,21.1,30.23,South,173,2.0,3.0,70,0.00,,---,0.00,VWS V14.01,2013-01-05 22:45:00,
2013-01-05 17:50:00,29.5,20.6,30.23,SE,144,3.0,3.0,69,0.00,,---,0.00,VWS V14.01,2013-01-05 22:50:00,
2013-01-05 17:55:00,30.7,21.1,30.23,ESE,110,3.0,6.0,67,0.00,,---,0.00,VWS V14.01,2013-01-05 22:55:00,
2013-01-05 18:00:00,30.9,20.9,30.21,ESE,110,3.0,4.0,66,0.00,,---,0.00,VWS V14.01,2013-01-05 23:00:00,
2013-01-05 18:05:00,31.3,20.9,30.21,ESE,111,2.0,4.0,65,0.00,,---,0.00,VWS V14.01,2013-01-05 23:05:00,
2013-01-05 18:10:00,31.6,20.8,30.21,East,95,4.0,6.0,64,0.00,,---,0.00,VWS V14.01,2013-01-05 23:10:00,
2013-01-05 18:15:00,31.9,20.8,30.21,East,101,1.0,5.0,63,0.00,,---,0.00,VWS V14.01,2013-01-05 23:15:00,
2013-01-05 18:20:00,31.8,21.0,30.21,ESE,102,0.0,1.0,64,0.00,,---,0.00,VWS V14.01,2013-01-05 23:20:00,
2013-01-05 18:25:00,31.2,21.2,30.21,ESE,102,0.0,0.0,66,0.00,,---,0.00,VWS V14.01,2013-01-05 23:25:00,
2013-01-05 18:30:00,31.0,21.0,30.22,ESE,103,0.0,3.0,66,0.00,,---,0.00,VWS V14.01,2013-01-05 23:30:00,
2013-01-05 18:35:00,30.4,20.4,30.22,ESE,103,0.0,2.0,66,0.00,,---,0.00,VWS V14.01,2013-01-05 23:35:00,
2013-01-05 18:40:00,30.0,20.7,30.22,ESE,103,0.0,2.0,68,0.00,,---,0.00,VWS V14.01,2013-01-05 23:40:00,
2013-01-05 18:45:00,29.4,20.8,30.21,ESE,103,0.0,0.0,70,0.00,,---,0.00,VWS V14.01,2013-01-05 23:45:00,
2013-01-05 18:50:00,29.3,20.7,30.21,ESE,103,0.0,0.0,70,0.00,,---,0.00,VWS V14.01,2013-01-05 23:50:00,
2013-01-05 18:55:00,29.1,20.9,30.21,ESE,103,0.0,0.0,71,0.00,,---,0.00,VWS V14.01,2013-01-05 23:55:00,
2013-01-05 19:00:00,29.4,20.8,30.20,ESE,103,2.0,2.0,70,0.00,,---,0.00,VWS V14.01,2013-01-06 00:00:00,
2013-01-05 19:05:00,29.3,21.4,30.20,ESE,103,2.0,3.0,72,0.00,,---,0.00,VWS V14.01,2013-01-06 00:05:00,
2013-01-05 19:10:00,29.5,21.6,30.20,ESE,103,2.0,3.0,72,0.00,,---,0.00,VWS V14.01,2013-01-06 00:10:00,
2013-01-05 19:15:00,29.4,20.8,30.19,ESE,103,2.0,3.0,70,0.00,,---,0.00,VWS V14.01,2013-01-06 00:15:00,
2013-01-05 19:20:00,30.0,21.4,30.19,ESE,103,2.0,3.0,70,0.00,,---,0.00,VWS V14.01,2013-01-06 00:20:00,
2013-01-05 19:25:00,29.8,21.6,30.19,ESE,103,0.0,3.0,71,0.00,,---,0.00,VWS V14.01,2013-01-06 00:25:00,
2013-01-05 19:30:00,30.6,21.3,30.20,ESE,103,0.0,3.0,68,0.00,,---,0.00,VWS V14.01,2013-01-06 00:30:00,
2013-01-05 19:35:00,30.3,21.4,30.20,ESE,103,0.0,0.0,69,0.00,,---,0.00,VWS V14.01,2013-01-06 00:35:00,
2013-01-05 19:40:00,30.7,21.4,30.20,ESE,103,0.0,3.0,68,0.00,,---,0.00,VWS V14.01,2013-01-06 00:40:00,
2013-01-05 19:45:00,30.4,21.5,30.20,ESE,103,0.0,3.0,69,0.00,,---,0.00,VWS V14.01,2013-01-06 00:45:00,
2013-01-05 19:50:00,30.0,21.4,30.20,ESE,103,0.0,0.0,70,0.00,,---,0.00,VWS V14.01,2013-01-06 00:50:00,
2013-01-05 19:55:00,30.3,21.7,30.20,ESE,103,0.0,2.0,70,0.00,,---,0.00,VWS V14.01,2013-01-06 00:55:00,
2013-01-05 20:00:00,30.6,21.6,30.19,ESE,103,0.0,0.0,69,0.00,,---,0.00,VWS V14.01,2013-01-06 01:00:00,
2013-01-05 20:05:00,30.6,21.3,30.19,ESE,103,0.0,0.0,68,0.00,,---,0.00,VWS V14.01,2013-01-06 01:05:00,
2013-01-05 20:10:00,30.7,21.4,30.19,ESE,103,0.0,0.0,68,0.00,,---,0.00,VWS V14.01,2013-01-06 01:10:00,
2013-01-05 20:15:00,30.4,21.1,30.18,ESE,103,0.0,0.0,68,0.00,,---,0.00,VWS V14.01,2013-01-06 01:15:00,
2013-01-05 20:20:00,30.4,21.1,30.18,ESE,103,0.0,0.0,68,0.00,,---,0.00,VWS V14.01,2013-01-06 01:20:00,
2013-01-05 20:25:00,30.9,21.6,30.18,ESE,103,2.0,3.0,68,0.00,,---,0.00,VWS V14.01,2013-01-06 01:25:00,
2013-01-05 20:30:00,31.8,21.8,30.18,ESE,103,0.0,2.0,66,0.00,,---,0.00,VWS V14.01,2013-01-06 01:30:00,
2013-01-05 20:35:00,31.5,22.2,30.18,ESE,103,0.0,2.0,68,0.00,,---,0.00,VWS V14.01,2013-01-06 01:35:00,
2013-01-05 20:40:00,31.8,22.5,30.18,ESE,103,0.0,2.0,68,0.00,,---,0.00,VWS V14.01,2013-01-06 01:40:00,
2013-01-05 20:45:00,31.6,22.3,30.17,ESE,103,1.0,3.0,68,0.00,,---,0.00,VWS V14.01,2013-01-06 01:45:00,
2013-01-05 20:50:00,31.6,22.6,30.17,ESE,103,0.0,0.0,69,0.00,,---,0.00,VWS V14.01,2013-01-06 01:50:00,
2013-01-05 20:55:00,32.1,22.4,30.17,ESE,103,0.0,1.0,67,0.00,,---,0.00,VWS V14.01,2013-01-06 01:55:00,
2013-01-05 21:00:00,31.5,22.5,30.17,ESE,103,0.0,0.0,69,0.00,,---,0.00,VWS V14.01,2013-01-06 02:00:00,
2013-01-05 21:05:00,31.3,22.7,30.17,ESE,103,0.0,3.0,70,0.00,,---,0.00,VWS V14.01,2013-01-06 02:05:00,
2013-01-05 21:10:00,31.6,22.6,30.17,ESE,103,0.0,0.0,69,0.00,,---,0.00,VWS V14.01,2013-01-06 02:10:00,
2013-01-05 21:15:00,31.6,22.6,30.18,ESE,103,0.0,0.0,69,0.00,,---,0.00,VWS V14.01,2013-01-06 02:15:00,
2013-01-05 21:20:00,31.8,22.1,30.18,ESE,103,0.0,0.0,67,0.00,,---,0.00,VWS V14.01,2013-01-06 02:20:00,
2013-01-05 21:25:00,31.8,22.1,30.18,ESE,103,0.0,0.0,67,0.00,,---,0.00,VWS V14.01,2013-01-06 02:25:00,
2013-01-05 21:30:00,32.2,22.1,30.18,ESE,103,0.0,2.0,66,0.00,,---,0.00,VWS V14.01,2013-01-06 02:30:00,
2013-01-05 21:35:00,33.5,21.5,30.18,ESE,103,0.0,1.0,61,0.00,,---,0.00,VWS V14.01,2013-01-06 02:35:00,
2013-01-05 21:40:00,33.8,21.4,30.18,ESE,103,0.0,4.0,60,0.00,,---,0.00,VWS V14.01,2013-01-06 02:40:00,
2013-01-05 21:45:00,34.6,21.4,30.17,ESE,105,0.0,2.0,58,0.00,,---,0.00,VWS V14.01,2013-01-06 02:45:00,
2013-01-05 21:50:00,35.0,21.3,30.17,ESE,111,0.0,3.0,57,0.00,,---,0.00,VWS V14.01,2013-01-06 02:50:00,
2013-01-05 21:55:00,35.8,21.2,30.17,ESE,111,0.0,2.0,55,0.00,,---,0.00,VWS V14.01,2013-01-06 02:55:00,
2013-01-05 22:00:00,35.9,20.9,30.17,ESE,111,0.0,1.0,54,0.00,,---,0.00,VWS V14.01,2013-01-06 03:00:00,
2013-01-05 22:05:00,36.0,20.5,30.17,ESE,119,4.0,4.0,53,0.00,,---,0.00,VWS V14.01,2013-01-06 03:05:00,
2013-01-05 22:10:00,35.9,21.3,30.17,ESE,121,0.0,0.0,55,0.00,,---,0.00,VWS V14.01,2013-01-06 03:10:00,
2013-01-05 22:15:00,35.9,20.9,30.16,ESE,121,0.0,1.0,54,0.00,,---,0.00,VWS V14.01,2013-01-06 03:15:00,
2013-01-05 22:20:00,36.0,21.4,30.16,ESE,121,0.0,0.0,55,0.00,,---,0.00,VWS V14.01,2013-01-06 03:20:00,
2013-01-05 22:25:00,36.0,21.4,30.16,SSW,206,0.0,3.0,55,0.00,,---,0.00,VWS V14.01,2013-01-06 03:25:00,
2013-01-05 22:30:00,35.9,21.3,30.17,West,265,0.0,4.0,55,0.00,,---,0.00,VWS V14.01,2013-01-06 03:30:00,
2013-01-05 22:35:00,35.9,20.9,30.17,SSW,206,0.0,3.0,54,0.00,,---,0.00,VWS V14.01,2013-01-06 03:35:00,
2013-01-05 22:40:00,35.9,20.9,30.17,South,173,0.0,4.0,54,0.00,,---,0.00,VWS V14.01,2013-01-06 03:40:00,
2013-01-05 22:45:00,35.8,21.2,30.16,South,177,0.0,1.0,55,0.00,,---,0.00,VWS V14.01,2013-01-06 03:45:00,
2013-01-05 22:50:00,35.8,21.2,30.16,SW,221,1.0,3.0,55,0.00,,---,0.00,VWS V14.01,2013-01-06 03:50:00,
2013-01-05 22:55:00,35.8,21.6,30.16,SW,221,0.0,1.0,56,0.00,,---,0.00,VWS V14.01,2013-01-06 03:55:00,
2013-01-05 23:00:00,35.8,21.2,30.15,WSW,243,0.0,3.0,55,0.00,,---,0.00,VWS V14.01,2013-01-06 04:00:00,
2013-01-05 23:05:00,35.9,21.3,30.15,ESE,103,0.0,3.0,55,0.00,,---,0.00,VWS V14.01,2013-01-06 04:05:00,
2013-01-05 23:10:00,36.0,21.4,30.15,SE,130,0.0,2.0,55,0.00,,---,0.00,VWS V14.01,2013-01-06 04:10:00,
2013-01-05 23:15:00,35.9,21.3,30.15,WSW,242,0.0,3.0,55,0.00,,---,0.00,VWS V14.01,2013-01-06 04:15:00,
2013-01-05 23:20:00,35.9,21.8,30.15,WSW,242,0.0,0.0,56,0.00,,---,0.00,VWS V14.01,2013-01-06 04:20:00,
2013-01-05 23:25:00,35.9,21.8,30.15,South,175,0.0,5.0,56,0.00,,---,0.00,VWS V14.01,2013-01-06 04:25:00,
2013-01-05 23:30:00,35.9,21.8,30.12,South,175,0.0,7.0,56,0.00,,---,0.00,VWS V14.01,2013-01-06 04:30:00,
2013-01-05 23:35:00,35.8,21.6,30.12,South,169,0.0,5.0,56,0.00,,---,0.00,VWS V14.01,2013-01-06 04:35:00,
2013-01-05 23:40:00,35.8,22.1,30.12,South,190,1.0,3.0,57,0.00,,---,0.00,VWS V14.01,2013-01-06 04:40:00,
2013-01-05 23:45:00,35.5,21.8,30.13,South,189,0.0,0.0,57,0.00,,---,0.00,VWS V14.01,2013-01-06 04:45:00,
2013-01-05 23:50:00,35.3,22.0,30.13,South,190,0.0,1.0,58,0.00,,---,0.00,VWS V14.01,2013-01-06 04:50:00,
2013-01-05 23:55:00,35.2,21.9,30.13,SSW,192,0.0,2.0,58,0.00,,---,0.00,VWS V14.01,2013-01-06 04:55:00,